Time;durP1;ratioP1;P1;durP2;ratioP2;P2;SDS_P1;SDS_P2;PMS_P1;PMS_P2;Temp;Humidity;BMP_temperature;BMP_pressure;BME280_temperature;BME280_humidity;BME280_pressure;Samples;Min_cycle;Max_cycle;Signal;HPM_P1;HPM_P2
2023/01/03 00:00:30;;;;;;;14.40;10.70;;;;;;;10.22;62.54;101436.94;10319611;28;20261;-85
2023/01/03 00:05:52;;;;;;;16.37;11.70;;;;;;;9.07;65.41;101440.44;10357737;28;20268;-87
2023/01/03 00:11:17;;;;;;;14.63;11.70;;;;;;;10.23;62.67;101447.03;10347758;28;20210;-87
2023/01/03 00:16:39;;;;;;;13.37;10.27;;;;;;;10.29;60.96;101443.94;10318926;28;20198;-85
2023/01/03 00:22:02;;;;;;;15.90;10.87;;;;;;;10.24;61.72;101438.31;10301519;28;20248;-86
2023/01/03 00:27:26;;;;;;;13.97;9.40;;;;;;;10.28;61.11;101433.00;10307192;28;20206;-88
2023/01/03 00:32:48;;;;;;;12.03;8.83;;;;;;;10.06;61.78;101436.13;10325032;28;20886;-87
2023/01/03 00:38:10;;;;;;;14.40;8.50;;;;;;;9.97;61.74;101441.50;10333822;28;20253;-87
2023/01/03 00:43:33;;;;;;;9.27;6.60;;;;;;;9.93;60.95;101437.56;10333303;28;20221;-87
2023/01/03 00:48:56;;;;;;;9.77;6.30;;;;;;;10.05;60.23;101456.91;10346330;28;20193;-85
2023/01/03 00:54:19;;;;;;;9.73;5.73;;;;;;;10.23;58.88;101456.28;10360152;28;20561;-85
2023/01/03 00:59:41;;;;;;;8.20;4.47;;;;;;;9.30;61.13;101462.28;10315822;28;20221;-86
2023/01/03 01:05:05;;;;;;;8.37;4.40;;;;;;;9.84;59.91;101460.88;10354266;28;20189;-85
2023/01/03 01:10:27;;;;;;;8.70;4.13;;;;;;;10.01;59.97;101467.84;10342961;28;20194;-86
2023/01/03 01:15:49;;;;;;;9.57;4.07;;;;;;;10.02;59.66;101468.69;10345072;28;20198;-87
2023/01/03 01:21:14;;;;;;;6.50;3.50;;;;;;;9.51;61.08;101479.97;10331350;28;20226;-85
2023/01/03 01:26:36;;;;;;;10.50;3.73;;;;;;;10.20;59.27;101481.22;10330078;28;20248;-87
2023/01/03 01:32:00;;;;;;;5.43;3.20;;;;;;;10.05;59.14;101481.31;10312781;28;20260;-87
2023/01/03 01:37:22;;;;;;;5.03;3.37;;;;;;;9.91;59.84;101495.91;10328254;28;20716;-85
2023/01/03 01:48:25;;;;;;;6.17;2.93;;;;;;;9.78;59.53;101510.50;10353255;28;20224;-85
2023/01/03 01:53:48;;;;;;;6.93;3.50;;;;;;;9.48;59.48;101518.88;10337052;28;20195;-84
2023/01/03 01:59:11;;;;;;;4.97;2.80;;;;;;;9.51;59.54;101521.13;10351162;28;20237;-86
2023/01/03 02:04:35;;;;;;;6.37;3.00;;;;;;;9.41;59.69;101529.53;10331020;28;20209;-85
2023/01/03 02:09:57;;;;;;;5.10;3.30;;;;;;;8.99;60.21;101538.94;10334954;28;20181;-85
2023/01/03 02:16:02;;;;;;;8.53;4.03;;;;;;;9.03;60.20;101540.03;10330524;28;20210;-85
2023/01/03 02:21:43;;;;;;;8.77;4.27;;;;;;;9.53;58.15;101549.72;10328966;28;20221;-85
2023/01/03 02:27:20;;;;;;;6.00;3.47;;;;;;;9.65;57.86;101547.47;10312304;28;20194;-85
2023/01/03 02:32:50;;;;;;;6.43;3.93;;;;;;;9.14;59.54;101558.56;10359241;28;20197;-86
2023/01/03 02:38:24;;;;;;;4.83;3.60;;;;;;;9.57;58.16;101556.41;10360097;28;20518;-86
2023/01/03 02:43:53;;;;;;;8.87;4.40;;;;;;;9.30;59.75;101557.47;10335983;28;20603;-85
2023/01/03 02:49:20;;;;;;;6.80;3.90;;;;;;;9.26;59.83;101552.72;10353230;28;20194;-85
2023/01/03 02:54:49;;;;;;;5.80;4.30;;;;;;;9.08;60.42;101556.88;10353003;28;20269;-87
2023/01/03 03:00:14;;;;;;;8.33;3.93;;;;;;;9.64;58.46;101551.41;10345219;28;20697;-85
2023/01/03 03:05:42;;;;;;;6.07;3.80;;;;;;;9.48;58.51;101556.13;10310375;28;20198;-85
2023/01/03 03:16:49;;;;;;;6.87;4.33;;;;;;;9.59;57.41;101549.41;10351467;28;20198;-84
2023/01/03 03:33:44;;;;;;;7.37;4.10;;;;;;;9.21;57.70;101569.50;10337552;28;20288;-86
2023/01/03 03:44:59;;;;;;;7.73;3.93;;;;;;;9.59;56.55;101565.38;10304018;28;20249;-86
2023/01/03 03:45:00;;;;;;;8.60;4.63;;;;;;;9.50;57.10;101567.06;10345845;28;20257;-87
2023/01/03 03:50:42;;;;;;;6.87;4.77;;;;;;;9.02;58.55;101577.53;10305110;28;20194;-87
2023/01/03 03:56:09;;;;;;;9.13;5.27;;;;;;;9.73;56.54;101565.69;10318039;28;20260;-85
2023/01/03 04:01:33;;;;;;;8.53;6.20;;;;;;;9.66;57.00;101577.19;10325878;28;20283;-86
2023/01/03 04:06:55;;;;;;;11.27;6.50;;;;;;;9.24;58.72;101580.16;10327968;28;20202;-87
2023/01/03 04:12:17;;;;;;;11.30;6.87;;;;;;;9.28;58.98;101582.09;10336233;28;20174;-89
2023/01/03 04:17:40;;;;;;;12.43;8.07;;;;;;;9.20;58.76;101574.25;10324456;28;20202;-87
2023/01/03 04:23:02;;;;;;;11.80;8.50;;;;;;;9.25;58.30;101576.22;10328314;28;20297;-88
2023/01/03 04:28:24;;;;;;;11.63;9.97;;;;;;;8.99;58.33;101589.31;10326544;28;20249;-86
2023/01/03 04:33:46;;;;;;;13.73;10.23;;;;;;;9.18;57.52;101578.44;10341214;28;20660;-87
2023/01/03 04:39:09;;;;;;;16.10;11.20;;;;;;;9.40;56.82;101581.91;10328334;28;20218;-89
2023/01/03 04:44:31;;;;;;;13.73;10.00;;;;;;;9.49;56.33;101576.59;10335771;28;20201;-87
2023/01/03 04:49:53;;;;;;;14.77;9.50;;;;;;;8.99;57.64;101583.72;10347863;28;20599;-89
2023/01/03 04:55:15;;;;;;;14.93;8.63;;;;;;;8.78;58.74;101596.75;10324641;28;20229;-87
2023/01/03 05:00:37;;;;;;;10.47;7.50;;;;;;;8.78;58.91;101599.56;10336936;28;20213;-86
2023/01/03 05:06:06;;;;;;;11.87;8.03;;;;;;;8.44;60.28;101601.91;10311428;28;20182;-82
2023/01/03 05:11:28;;;;;;;9.07;6.80;;;;;;;8.86;58.77;101595.41;10351683;28;20193;-87
2023/01/03 05:16:50;;;;;;;7.97;7.10;;;;;;;9.28;57.81;101593.31;10315227;28;20197;-83
2023/01/03 05:27:53;;;;;;;13.20;7.83;;;;;;;8.56;61.00;101615.66;10356881;28;20267;-87
2023/01/03 05:33:16;;;;;;;9.33;8.07;;;;;;;9.27;58.64;101596.41;10372627;28;20222;-88
2023/01/03 05:38:38;;;;;;;8.57;7.50;;;;;;;8.19;62.38;101596.16;10318916;28;20218;-86
2023/01/03 05:44:00;;;;;;;12.00;7.50;;;;;;;8.73;60.17;101599.56;10364270;28;20198;-84
2023/01/03 05:49:22;;;;;;;9.57;7.10;;;;;;;9.28;58.56;101601.69;10347330;28;20202;-84
2023/01/03 05:54:44;;;;;;;10.23;6.93;;;;;;;8.97;59.33;101608.31;10339427;28;20205;-87
2023/01/03 06:00:07;;;;;;;15.03;6.37;;;;;;;8.85;59.29;101610.50;10346552;28;20239;-86
2023/01/03 06:05:29;;;;;;;10.13;8.13;;;;;;;9.11;61.29;101615.09;10345905;28;20841;-82
2023/01/03 06:10:52;;;;;;;12.13;7.47;;;;;;;9.31;57.86;101612.34;10321290;28;20595;-85
2023/01/03 06:21:58;;;;;;;14.27;6.83;;;;;;;8.99;58.83;101611.69;10342482;28;20484;-86
2023/01/03 06:27:20;;;;;;;8.10;5.70;;;;;;;8.81;59.88;101614.97;10331393;28;20279;-85
2023/01/03 06:32:45;;;;;;;8.50;6.20;;;;;;;8.56;60.88;101610.06;10331182;28;20256;-87
2023/01/03 06:38:07;;;;;;;12.30;6.00;;;;;;;8.50;60.89;101603.59;10319386;28;20202;-85
2023/01/03 06:43:29;;;;;;;12.17;6.17;;;;;;;8.37;61.62;101609.66;10339200;28;20217;-83
2023/01/03 06:54:34;;;;;;;7.77;5.17;;;;;;;8.66;60.61;101612.09;10332813;28;20213;-82
2023/01/03 06:59:57;;;;;;;8.93;5.80;;;;;;;8.59;60.55;101613.19;10330415;28;20276;-83
2023/01/03 07:05:19;;;;;;;6.63;5.20;;;;;;;8.57;60.78;101621.00;10315078;28;20202;-84
2023/01/03 07:10:41;;;;;;;8.57;5.37;;;;;;;8.25;61.81;101617.41;10341227;28;20214;-84
2023/01/03 07:16:03;;;;;;;8.87;4.60;;;;;;;8.32;61.71;101612.44;10339767;28;20209;-87
2023/01/03 07:21:27;;;;;;;9.20;4.73;;;;;;;8.65;60.52;101616.00;10318130;28;20229;-84
2023/01/03 07:26:49;;;;;;;8.77;4.10;;;;;;;9.08;59.70;101615.66;10340629;28;20286;-88
2023/01/03 07:32:11;;;;;;;7.10;4.07;;;;;;;9.00;59.69;101626.53;10337322;28;20255;-83
2023/01/03 07:37:34;;;;;;;7.97;4.00;;;;;;;9.04;59.21;101625.69;10328386;28;20193;-86
2023/01/03 07:48:37;;;;;;;5.83;3.90;;;;;;;9.52;57.86;101626.44;10343118;28;20201;-85
2023/01/03 07:54:01;;;;;;;6.93;3.73;;;;;;;9.13;59.00;101626.88;10343969;28;20673;-87
2023/01/03 07:59:23;;;;;;;5.70;3.10;;;;;;;9.44;58.48;101618.56;10325250;28;20221;-87
2023/01/03 08:04:46;;;;;;;8.60;3.30;;;;;;;9.13;59.71;101628.81;10328584;28;20209;-86
2023/01/03 08:15:55;;;;;;;5.40;2.43;;;;;;;8.65;61.60;101635.56;10339512;28;20202;-84
2023/01/03 08:21:17;;;;;;;4.27;2.20;;;;;;;9.09;60.45;101614.53;10314587;28;20292;-86
2023/01/03 08:26:40;;;;;;;8.20;2.33;;;;;;;8.78;61.69;101615.50;10334801;28;20201;-87
2023/01/03 08:32:02;;;;;;;5.80;2.00;;;;;;;8.61;61.98;101612.06;10326139;28;20205;-83
2023/01/03 08:37:26;;;;;;;4.50;2.13;;;;;;;8.69;62.00;101614.34;10314730;28;20194;-83
2023/01/03 08:42:48;;;;;;;4.73;2.00;;;;;;;9.37;60.41;101603.97;10330705;28;20230;-83
2023/01/03 08:48:10;;;;;;;6.43;2.10;;;;;;;8.77;61.58;101613.81;10330272;28;20209;-84
2023/01/03 08:53:34;;;;;;;5.33;2.47;;;;;;;9.02;61.09;101627.09;10339213;28;20194;-86
2023/01/03 08:58:59;;;;;;;7.37;2.37;;;;;;;9.85;58.53;101620.31;10314826;28;20264;-84
2023/01/03 09:04:22;;;;;;;4.93;2.10;;;;;;;9.36;58.92;101630.28;10343657;28;20591;-88
2023/01/03 09:09:45;;;;;;;2.40;1.50;;;;;;;9.55;58.47;101629.53;10345853;28;20233;-86
2023/01/03 09:15:09;;;;;;;2.63;1.20;;;;;;;9.21;59.68;101626.31;10333555;28;20257;-87
2023/01/03 09:20:31;;;;;;;3.70;1.53;;;;;;;9.36;59.42;101633.94;10336693;28;20272;-87
2023/01/03 09:25:53;;;;;;;3.67;1.83;;;;;;;9.60;58.01;101628.69;10328617;28;20202;-84
2023/01/03 09:31:16;;;;;;;3.03;1.40;;;;;;;9.47;59.63;101637.63;10349366;28;20194;-87
2023/01/03 09:36:39;;;;;;;1.87;1.53;;;;;;;9.27;60.47;101619.66;10319938;28;20217;-87
2023/01/03 09:47:45;;;;;;;3.90;1.40;;;;;;;9.97;58.85;101623.69;10331150;28;20538;-87
2023/01/03 10:05:23;;;;;;;2.47;1.10;;;;;;;9.32;61.65;101647.63;10316731;28;20557;-88
2023/01/03 10:10:55;;;;;;;1.63;1.00;;;;;;;9.79;60.13;101638.28;10324802;28;20293;-87
2023/01/03 10:16:47;;;;;;;1.20;0.90;;;;;;;9.70;59.77;101633.47;10338619;28;20225;-89
2023/01/03 10:22:18;;;;;;;2.90;1.13;;;;;;;10.45;58.23;101641.03;10335436;28;20254;-88
2023/01/03 10:27:47;;;;;;;2.07;1.00;;;;;;;10.32;58.84;101641.59;10321525;28;20273;-84
2023/01/03 10:33:18;;;;;;;3.00;1.17;;;;;;;9.82;58.97;101646.09;10328704;28;20202;-88
2023/01/03 10:38:41;;;;;;;1.10;1.00;;;;;;;10.79;56.97;101634.84;10321638;28;20198;-87
2023/01/03 10:44:03;;;;;;;5.97;1.30;;;;;;;9.61;60.49;101636.00;10311189;28;20268;-88
2023/01/03 10:49:29;;;;;;;1.40;1.10;;;;;;;10.54;58.01;101625.31;10323553;28;20203;-89
2023/01/03 10:55:25;;;;;;;1.63;1.07;;;;;;;9.92;59.49;101623.72;10347605;28;20218;-85
2023/01/03 11:00:47;;;;;;;2.77;1.40;;;;;;;10.14;58.03;101617.81;10320761;28;20221;-85
2023/01/03 11:06:14;;;;;;;5.20;1.00;;;;;;;10.49;57.76;101614.09;10320920;28;20214;-84
2023/01/03 11:11:40;;;;;;;5.20;0.90;;;;;;;10.39;59.20;101608.53;10330843;28;20198;-87
2023/01/03 11:17:04;;;;;;;2.63;0.80;;;;;;;11.00;57.29;101608.34;10318535;28;20252;-85
2023/01/03 11:22:37;;;;;;;3.23;1.00;;;;;;;10.93;58.05;101610.66;10296389;28;20315;-85
2023/01/03 11:28:28;;;;;;;1.40;0.70;;;;;;;10.58;58.41;101606.81;10312947;28;20205;-85
2023/01/03 11:33:57;;;;;;;2.30;0.90;;;;;;;10.31;59.37;101600.69;10344091;28;20189;-83
2023/01/03 11:39:35;;;;;;;3.80;0.90;;;;;;;10.57;58.91;101599.56;10300280;28;20221;-84
2023/01/03 11:45:19;;;;;;;3.13;0.70;;;;;;;10.83;58.66;101597.50;10320667;28;20268;-87
2023/01/03 11:50:56;;;;;;;3.67;1.37;;;;;;;10.93;57.81;101603.06;10326199;28;20226;-83
2023/01/03 11:56:35;;;;;;;0.97;0.90;;;;;;;11.15;57.33;101588.63;10347145;28;20257;-87
2023/01/03 12:02:22;;;;;;;3.30;0.90;;;;;;;11.42;56.29;101577.81;10320244;28;20249;-83
2023/01/03 12:07:53;;;;;;;1.43;1.33;;;;;;;11.66;55.89;101565.84;10324161;28;20234;-88
2023/01/03 12:13:41;;;;;;;3.53;1.40;;;;;;;11.44;55.87;101566.28;10329469;28;20280;-86
2023/01/03 12:19:42;;;;;;;4.07;0.90;;;;;;;11.15;55.53;101583.03;10319634;28;20277;-83
2023/01/03 12:25:23;;;;;;;2.47;0.93;;;;;;;10.88;57.00;101565.75;10332812;28;20253;-88
2023/01/03 12:30:56;;;;;;;2.67;1.30;;;;;;;11.24;55.13;101572.00;10336077;28;20241;-84
2023/01/03 12:36:41;;;;;;;2.50;0.97;;;;;;;11.14;55.83;101567.28;10321467;28;20197;-84
2023/01/03 12:42:30;;;;;;;4.57;1.23;;;;;;;11.99;54.43;101550.97;10318710;28;20285;-84
2023/01/03 12:48:12;;;;;;;8.97;1.20;;;;;;;11.92;53.52;101558.91;10337437;28;20256;-87
2023/01/03 12:54:13;;;;;;;2.33;1.10;;;;;;;12.25;52.96;101545.94;10334619;28;20193;-85
2023/01/03 13:00:13;;;;;;;2.97;1.27;;;;;;;12.37;52.70;101537.94;10344989;28;20264;-88
2023/01/03 13:05:43;;;;;;;3.00;0.97;;;;;;;11.43;54.58;101534.53;10330667;28;20796;-83
2023/01/03 13:11:20;;;;;;;5.10;1.33;;;;;;;11.48;54.62;101535.63;10323726;28;20217;-83
2023/01/03 13:16:45;;;;;;;4.10;1.50;;;;;;;11.31;54.74;101534.06;10310060;28;20277;-86
2023/01/03 13:22:42;;;;;;;2.00;0.77;;;;;;;12.59;50.15;101523.31;10329262;28;20622;-83
2023/01/03 13:28:19;;;;;;;1.73;1.00;;;;;;;11.93;51.65;101514.75;10324746;28;20206;-84
2023/01/03 13:33:54;;;;;;;3.13;0.60;;;;;;;11.83;52.16;101510.06;10340466;28;20193;-82
2023/01/03 13:39:35;;;;;;;4.40;0.90;;;;;;;11.77;51.49;101508.44;10326203;28;20221;-83
2023/01/03 13:45:09;;;;;;;1.83;0.60;;;;;;;11.79;51.90;101508.97;10332850;28;20241;-82
2023/01/03 13:50:34;;;;;;;3.47;0.50;;;;;;;11.39;52.88;101516.56;10344615;28;20202;-84
2023/01/03 13:55:59;;;;;;;3.20;0.30;;;;;;;11.41;51.67;101519.94;10324104;28;20256;-82
2023/01/03 14:01:52;;;;;;;5.43;0.57;;;;;;;11.18;51.92;101517.84;10311109;28;20317;-85
2023/01/03 14:07:34;;;;;;;2.00;0.50;;;;;;;11.19;53.59;101516.72;10316305;28;20252;-84
2023/01/03 14:13:07;;;;;;;1.27;0.50;;;;;;;11.05;52.48;101510.06;10317000;28;20225;-82
2023/01/03 14:18:31;;;;;;;1.43;0.80;;;;;;;11.62;50.94;101525.38;10331266;28;20261;-83
2023/01/03 14:23:57;;;;;;;3.53;0.60;;;;;;;11.34;51.54;101519.44;10311388;28;20264;-82
2023/01/03 14:29:21;;;;;;;2.23;0.50;;;;;;;10.79;52.83;101523.41;10329137;28;20570;-81
2023/01/03 14:34:43;;;;;;;5.87;0.80;;;;;;;11.27;50.97;101518.91;10332845;28;20237;-87
2023/01/03 14:40:06;;;;;;;1.67;0.60;;;;;;;10.93;51.43;101534.84;10311009;28;20642;-83
2023/01/03 14:45:29;;;;;;;2.23;0.50;;;;;;;11.10;49.92;101518.44;10320344;28;20244;-86
2023/01/03 14:50:52;;;;;;;3.73;0.40;;;;;;;11.18;48.74;101526.28;10327392;28;20226;-85
2023/01/03 14:56:14;;;;;;;3.77;0.47;;;;;;;11.08;48.73;101515.13;10316478;28;20249;-84
2023/01/03 15:01:37;;;;;;;4.67;0.60;;;;;;;11.46;47.50;101516.25;10313001;28;20261;-87
2023/01/03 15:07:03;;;;;;;4.37;0.90;;;;;;;11.33;47.98;101523.38;10311259;28;20237;-87
2023/01/03 15:12:25;;;;;;;1.83;0.80;;;;;;;11.47;48.24;101528.34;10322973;28;20230;-83
2023/01/03 15:17:53;;;;;;;1.93;0.50;;;;;;;11.28;47.75;101540.25;10311983;28;20260;-86
2023/01/03 15:23:23;;;;;;;1.33;0.33;;;;;;;11.70;47.65;101536.03;10313839;28;20841;-85
2023/01/03 15:29:04;;;;;;;3.00;0.43;;;;;;;11.11;49.63;101548.22;10318381;28;20237;-83
2023/01/03 15:34:27;;;;;;;0.67;0.30;;;;;;;10.18;52.54;101556.41;10301158;28;20288;-87
2023/01/03 15:39:51;;;;;;;2.00;0.60;;;;;;;10.97;50.15;101559.22;10327907;28;20248;-83
2023/01/03 15:45:20;;;;;;;1.73;0.40;;;;;;;11.22;48.98;101563.06;10335962;28;20634;-86
2023/01/03 15:50:48;;;;;;;0.90;0.37;;;;;;;10.61;50.47;101555.75;10304004;28;20276;-83
2023/01/03 15:56:23;;;;;;;2.50;0.50;;;;;;;11.15;49.83;101560.56;10313042;28;20303;-83
2023/01/03 16:01:45;;;;;;;1.90;0.60;;;;;;;10.72;49.90;101556.53;10317436;28;20952;-85
2023/01/03 16:07:09;;;;;;;1.47;0.77;;;;;;;11.15;49.24;101552.13;10294801;28;20288;-83
2023/01/03 16:12:34;;;;;;;1.73;0.60;;;;;;;11.18;48.62;101543.13;10314219;28;20229;-84
2023/01/03 16:17:57;;;;;;;1.40;0.60;;;;;;;11.12;48.60;101538.66;10315084;28;20681;-84
2023/01/03 16:23:25;;;;;;;2.93;0.50;;;;;;;11.20;48.82;101542.84;10315098;28;20300;-83
2023/01/03 16:28:47;;;;;;;4.13;0.90;;;;;;;10.62;50.62;101532.19;10322759;28;20245;-82
2023/01/03 16:34:16;;;;;;;2.10;0.73;;;;;;;10.68;50.86;101519.81;10305071;28;20276;-85
2023/01/03 16:39:38;;;;;;;1.63;0.60;;;;;;;10.81;50.60;101517.50;10303073;28;20245;-82
2023/01/03 16:45:00;;;;;;;1.50;0.60;;;;;;;11.03;50.32;101530.00;10318843;28;20269;-85
2023/01/03 16:50:24;;;;;;;3.57;1.00;;;;;;;10.57;51.23;101526.59;10304107;28;20650;-84
2023/01/03 16:55:49;;;;;;;3.90;1.20;;;;;;;10.41;51.34;101522.13;10310388;28;20295;-84
2023/01/03 17:01:12;;;;;;;2.03;1.57;;;;;;;10.37;51.78;101532.22;10311606;28;20914;-85
2023/01/03 17:06:35;;;;;;;4.17;1.63;;;;;;;10.13;52.77;101531.19;10313603;28;20291;-86
2023/01/03 17:11:58;;;;;;;5.13;1.20;;;;;;;9.90;52.93;101533.47;10309010;28;20292;-84
2023/01/03 17:17:21;;;;;;;2.27;0.80;;;;;;;10.01;52.83;101532.31;10312450;28;20618;-85
2023/01/03 17:22:49;;;;;;;2.30;1.27;;;;;;;10.32;51.83;101526.63;10317060;28;20272;-82
2023/01/03 17:28:12;;;;;;;1.40;1.10;;;;;;;10.11;52.39;101516.59;10326548;28;20233;-82
2023/01/03 17:33:34;;;;;;;3.77;1.43;;;;;;;9.56;53.62;101515.53;10312302;28;20248;-82
2023/01/03 17:39:01;;;;;;;2.23;0.93;;;;;;;10.04;52.97;101527.28;10324846;28;20257;-81
2023/01/03 17:44:23;;;;;;;5.07;1.70;;;;;;;10.13;53.14;101525.56;10304596;28;20634;-83
2023/01/03 17:49:46;;;;;;;4.70;1.20;;;;;;;9.55;54.27;101522.25;10329522;28;20237;-83
2023/01/03 17:55:26;;;;;;;3.10;1.03;;;;;;;9.83;53.59;101518.88;10312705;28;20241;-87
2023/01/03 18:00:48;;;;;;;2.40;0.73;;;;;;;9.37;54.36;101511.56;10298400;28;20634;-82
2023/01/03 18:06:15;;;;;;;2.17;0.93;;;;;;;9.76;53.11;101512.72;10297622;28;20241;-82
2023/01/03 18:11:37;;;;;;;2.37;0.80;;;;;;;9.28;54.39;101520.50;10303373;28;20241;-85
2023/01/03 18:16:59;;;;;;;4.43;0.93;;;;;;;9.59;53.30;101518.59;10338077;28;20684;-85
2023/01/03 18:22:22;;;;;;;3.70;1.20;;;;;;;9.20;54.20;101518.25;10322769;28;20304;-84
2023/01/03 18:27:51;;;;;;;3.33;0.93;;;;;;;9.40;53.71;101511.91;10317038;28;20229;-83
2023/01/03 18:33:13;;;;;;;2.77;0.70;;;;;;;9.15;54.25;101509.84;10327945;28;20234;-83
2023/01/03 18:38:39;;;;;;;1.67;0.97;;;;;;;9.44;53.45;101498.16;10319303;28;20291;-84
2023/01/03 18:44:02;;;;;;;1.90;0.70;;;;;;;9.98;51.19;101495.59;10310312;28;20679;-84
2023/01/03 18:49:24;;;;;;;5.97;1.07;;;;;;;9.52;52.38;101481.66;10310102;28;20524;-84
2023/01/03 18:54:46;;;;;;;1.83;0.97;;;;;;;9.35;53.42;101480.19;10344140;28;20551;-83
2023/01/03 19:00:29;;;;;;;2.23;0.83;;;;;;;9.01;54.19;101479.91;10332802;28;20230;-83
2023/01/03 19:05:53;;;;;;;3.77;0.70;;;;;;;9.42;53.30;101470.41;10322073;28;20253;-83
2023/01/03 19:11:18;;;;;;;3.90;0.90;;;;;;;9.29;53.42;101470.94;10317265;28;20241;-82
2023/01/03 19:16:40;;;;;;;3.30;0.83;;;;;;;9.00;54.20;101451.06;10327447;28;20331;-87
2023/01/03 19:22:05;;;;;;;4.23;1.20;;;;;;;9.15;53.95;101439.88;10330762;28;20321;-86
2023/01/03 19:27:35;;;;;;;3.53;0.87;;;;;;;9.04;53.87;101426.16;10345135;28;20233;-87
2023/01/03 19:32:58;;;;;;;1.90;1.10;;;;;;;8.90;54.59;101423.88;10322893;28;20232;-84
2023/01/03 19:38:20;;;;;;;2.73;0.57;;;;;;;8.98;53.84;101407.69;10329407;28;20274;-83
2023/01/03 19:43:43;;;;;;;2.00;0.60;;;;;;;9.16;53.56;101399.56;10315439;28;20249;-83
2023/01/03 19:49:13;;;;;;;3.07;1.00;;;;;;;9.07;53.65;101404.03;10308152;28;20279;-83
2023/01/03 19:54:35;;;;;;;2.53;0.60;;;;;;;9.09;53.37;101396.22;10322484;28;20275;-83
2023/01/03 19:59:59;;;;;;;2.23;0.90;;;;;;;9.07;53.37;101376.06;10304792;28;20226;-83
2023/01/03 20:05:33;;;;;;;2.13;0.80;;;;;;;9.23;53.30;101372.13;10293142;28;20237;-85
2023/01/03 20:10:56;;;;;;;4.03;0.80;;;;;;;8.95;53.53;101369.91;10312706;28;20255;-84
2023/01/03 20:16:18;;;;;;;2.53;0.40;;;;;;;9.09;52.84;101375.78;10334721;28;20295;-84
2023/01/03 20:21:41;;;;;;;3.10;0.53;;;;;;;9.09;53.20;101378.59;10308816;28;20307;-85
2023/01/03 20:27:03;;;;;;;1.93;0.40;;;;;;;9.58;51.80;101378.84;10311972;28;20229;-84
2023/01/03 20:32:25;;;;;;;3.40;0.63;;;;;;;9.15;53.50;101383.06;10311180;28;20225;-83
2023/01/03 20:37:53;;;;;;;3.03;0.70;;;;;;;8.86;54.13;101371.59;10326982;28;20232;-83
2023/01/03 20:43:17;;;;;;;2.87;0.60;;;;;;;8.73;54.76;101369.34;10325887;28;20260;-84
2023/01/03 20:48:39;;;;;;;2.87;0.57;;;;;;;8.45;55.51;101357.53;10312811;28;20225;-83
2023/01/03 20:54:01;;;;;;;3.27;0.57;;;;;;;9.05;54.33;101339.09;10319525;28;20252;-83
2023/01/03 20:59:24;;;;;;;2.80;0.60;;;;;;;8.54;55.55;101318.69;10301742;28;20537;-83
2023/01/03 21:04:46;;;;;;;1.53;0.50;;;;;;;8.88;54.95;101310.59;10330744;28;20252;-83
2023/01/03 21:10:19;;;;;;;1.57;0.50;;;;;;;8.69;55.18;101312.25;10318139;28;20269;-83
2023/01/03 21:15:41;;;;;;;4.87;1.20;;;;;;;8.88;54.36;101299.41;10317404;28;20596;-83
2023/01/03 21:21:05;;;;;;;2.27;0.63;;;;;;;8.92;54.84;101311.69;10310351;28;20283;-83
2023/01/03 21:26:27;;;;;;;2.30;0.60;;;;;;;8.77;54.97;101317.28;10325250;28;20307;-82
2023/01/03 21:31:49;;;;;;;1.80;0.47;;;;;;;8.69;55.71;101306.66;10327004;28;20221;-84
2023/01/03 21:37:11;;;;;;;4.50;0.67;;;;;;;8.72;55.02;101306.13;10343045;28;20243;-83
2023/01/03 21:48:16;;;;;;;5.97;0.90;;;;;;;8.67;55.96;101294.91;10329871;28;20229;-84
2023/01/03 21:53:39;;;;;;;3.27;0.90;;;;;;;8.91;54.86;101294.06;10331422;28;20217;-84
2023/01/03 21:59:01;;;;;;;2.67;0.60;;;;;;;8.50;55.82;101298.81;10340145;28;20233;-83
2023/01/03 22:04:23;;;;;;;2.30;0.60;;;;;;;8.46;56.14;101278.13;10354876;28;20221;-84
2023/01/03 22:15:26;;;;;;;3.10;0.50;;;;;;;8.51;56.28;101258.53;10347905;28;20213;-84
2023/01/03 22:20:48;;;;;;;2.90;0.40;;;;;;;8.28;56.93;101247.91;10340737;28;20209;-83
2023/01/03 22:26:13;;;;;;;2.53;0.47;;;;;;;8.71;55.56;101226.13;10360744;28;20209;-83
2023/01/03 22:31:35;;;;;;;1.80;0.57;;;;;;;8.45;57.04;101226.13;10347649;28;20574;-83
2023/01/03 22:36:57;;;;;;;4.10;0.47;;;;;;;8.84;55.71;101237.56;10355008;28;20205;-83
2023/01/03 22:42:19;;;;;;;5.70;0.80;;;;;;;9.00;55.56;101224.41;10336278;28;20709;-84
2023/01/03 22:47:42;;;;;;;3.97;0.60;;;;;;;9.08;54.90;101221.00;10357958;28;20197;-83
2023/01/03 22:53:04;;;;;;;4.80;0.70;;;;;;;8.48;56.65;101217.19;10345192;28;20221;-83
2023/01/03 22:58:26;;;;;;;3.37;0.60;;;;;;;9.03;54.92;101212.63;10343354;28;20218;-84
2023/01/03 23:03:48;;;;;;;3.50;1.00;;;;;;;8.68;55.94;101201.50;10315557;28;20293;-85
2023/01/03 23:09:11;;;;;;;1.53;0.53;;;;;;;8.78;55.54;101195.88;10333353;28;20202;-84
2023/01/03 23:14:33;;;;;;;2.00;0.67;;;;;;;8.62;56.83;101174.69;10323946;28;20190;-84
2023/01/03 23:19:56;;;;;;;4.77;0.70;;;;;;;8.73;55.76;101159.56;10335149;28;20198;-84
2023/01/03 23:25:18;;;;;;;3.43;0.70;;;;;;;8.78;56.30;101157.56;10321082;28;20244;-83
2023/01/03 23:30:40;;;;;;;2.40;0.60;;;;;;;9.21;54.62;101149.59;10344568;28;20677;-85
2023/01/03 23:36:07;;;;;;;2.07;0.60;;;;;;;8.75;56.78;101134.94;10318061;28;20603;-84
2023/01/03 23:41:29;;;;;;;2.23;0.60;;;;;;;8.49;57.53;101139.75;10324595;28;20229;-84
2023/01/03 23:46:51;;;;;;;1.27;0.40;;;;;;;9.05;55.20;101095.63;10332627;28;20313;-83
2023/01/03 23:52:13;;;;;;;3.80;0.70;;;;;;;8.83;55.85;101092.38;10331040;28;20201;-82
2023/01/03 23:57:35;;;;;;;2.67;0.47;;;;;;;8.86;55.94;101103.84;10333049;28;20225;-83
